Time;durP1;ratioP1;P1;durP2;ratioP2;P2;SDS_P1;SDS_P2;PMS_P1;PMS_P2;Temp;Humidity;BMP_temperature;BMP_pressure;BME280_temperature;BME280_humidity;BME280_pressure;Samples;Min_cycle;Max_cycle;Signal;HPM_P1;HPM_P2
2021/12/31 00:00:15;;;;;;;;;;;;;;;12.63;51.67;100036.47;4468114;32;34986;-77
2021/12/31 00:02:42;;;;;;;;;;;;;;;13.05;50.69;100033.06;4463038;32;33773;-77
2021/12/31 00:05:10;;;;;;;;;;;;;;;13.18;50.39;100027.53;4467639;32;33456;-75
2021/12/31 00:07:38;;;;;;;;;;;;;;;13.03;51.11;100036.84;4466422;32;31385;-76
2021/12/31 00:10:06;;;;;;;;;;;;;;;13.09;50.60;100046.25;4464877;32;34865;-77
2021/12/31 00:12:34;;;;;;;;;;;;;;;12.86;51.47;100043.56;4464175;32;34440;-80
2021/12/31 00:15:01;;;;;;;;;;;;;;;11.93;54.14;100045.44;4467139;32;34198;-79
2021/12/31 00:17:28;;;;;;;;;;;;;;;12.44;53.16;100048.66;4464729;32;33210;-78
2021/12/31 00:20:03;;;;;;;;;;;;;;;12.54;52.74;100051.47;4464943;32;34260;-78
2021/12/31 00:25:18;;;;;;;;;;;;;;;12.67;52.38;100033.41;4467434;32;33952;-80
2021/12/31 00:27:46;;;;;;;;;;;;;;;12.59;52.74;100047.47;4465813;32;32636;-79
2021/12/31 00:30:14;;;;;;;;;;;;;;;12.62;52.71;100042.84;4471841;31;34196;-82
2021/12/31 00:32:41;;;;;;;;;;;;;;;12.61;52.68;100033.91;4467109;32;32738;-75
2021/12/31 00:35:09;;;;;;;;;;;;;;;12.61;52.81;100027.69;4475409;32;33887;-77
2021/12/31 00:37:37;;;;;;;;;;;;;;;12.68;52.66;100028.91;4439917;32;833075;-75
2021/12/31 00:40:06;;;;;;;;;;;;;;;12.63;52.85;100028.41;4466841;32;34129;-75
2021/12/31 00:42:34;;;;;;;;;;;;;;;12.35;53.78;100036.78;4466750;32;34438;-76
2021/12/31 00:45:02;;;;;;;;;;;;;;;12.64;53.00;100030.97;4468330;32;34691;-75
2021/12/31 00:47:29;;;;;;;;;;;;;;;12.29;54.15;100033.72;4466914;32;34458;-76
2021/12/31 00:49:57;;;;;;;;;;;;;;;12.37;53.78;100035.84;4470780;32;32936;-74
2021/12/31 00:52:24;;;;;;;;;;;;;;;12.39;53.84;100044.59;4469749;32;34401;-78
2021/12/31 00:54:52;;;;;;;;;;;;;;;12.62;53.02;100046.38;4472847;32;35450;-77
2021/12/31 00:57:19;;;;;;;;;;;;;;;12.37;54.14;100046.56;4467664;32;34724;-76
2021/12/31 00:59:47;;;;;;;;;;;;;;;12.26;54.55;100044.69;4468303;32;35262;-80
2021/12/31 01:02:16;;;;;;;;;;;;;;;12.33;54.52;100046.81;4469833;32;34896;-78
2021/12/31 01:04:44;;;;;;;;;;;;;;;12.50;54.12;100041.97;4467307;32;35393;-78
2021/12/31 01:07:11;;;;;;;;;;;;;;;12.50;54.08;100047.31;4468362;32;32347;-76
2021/12/31 01:09:38;;;;;;;;;;;;;;;12.60;53.78;100048.31;4467758;32;34722;-76
2021/12/31 01:12:09;;;;;;;;;;;;;;;12.58;54.01;100047.56;4468824;32;34319;-76
2021/12/31 01:14:44;;;;;;;;;;;;;;;12.54;54.09;100054.16;4467315;32;33023;-82
2021/12/31 01:17:15;;;;;;;;;;;;;;;12.56;53.95;100050.37;4465438;32;33051;-82
2021/12/31 01:19:49;;;;;;;;;;;;;;;12.54;54.34;100056.84;4465356;32;33379;-83
2021/12/31 01:22:26;;;;;;;;;;;;;;;12.56;54.45;100052.22;4462939;32;33785;-83
2021/12/31 01:24:53;;;;;;;;;;;;;;;12.74;53.87;100058.81;4466268;32;33570;-86
2021/12/31 01:27:21;;;;;;;;;;;;;;;12.81;53.81;100046.63;4454525;32;32944;-80
2021/12/31 01:29:49;;;;;;;;;;;;;;;12.63;54.25;100052.59;4449085;32;36174;-81
2021/12/31 01:32:16;;;;;;;;;;;;;;;12.77;53.86;100050.50;4455988;32;34155;-84
2021/12/31 01:34:43;;;;;;;;;;;;;;;12.89;53.42;100055.91;4464258;32;33462;-83
2021/12/31 01:37:11;;;;;;;;;;;;;;;12.91;53.55;100056.66;4467253;32;33470;-81
2021/12/31 01:39:38;;;;;;;;;;;;;;;12.93;53.43;100052.84;4452272;32;33148;-82
2021/12/31 01:42:07;;;;;;;;;;;;;;;13.10;52.92;100054.19;4466053;32;34354;-82
2021/12/31 01:44:41;;;;;;;;;;;;;;;13.05;53.03;100057.22;4462969;32;34316;-85
2021/12/31 01:47:12;;;;;;;;;;;;;;;12.87;53.54;100049.78;4455236;31;34610;-87
2021/12/31 01:49:42;;;;;;;;;;;;;;;12.74;54.10;100044.53;4442525;32;34740;-82
2021/12/31 01:52:10;;;;;;;;;;;;;;;12.97;53.68;100056.12;4467723;32;34187;-80
2021/12/31 01:54:38;;;;;;;;;;;;;;;13.08;53.37;100047.22;4458940;32;33896;-79
2021/12/31 01:57:06;;;;;;;;;;;;;;;13.17;53.26;100050.03;4453837;32;33332;-82
2021/12/31 01:59:35;;;;;;;;;;;;;;;13.25;53.00;100052.97;4462131;32;33989;-82
2021/12/31 02:02:03;;;;;;;;;;;;;;;13.22;53.30;100049.66;4465964;32;35349;-82
2021/12/31 02:04:31;;;;;;;;;;;;;;;13.15;53.53;100053.81;4463805;32;33948;-81
2021/12/31 02:06:58;;;;;;;;;;;;;;;13.29;53.23;100050.91;4467417;32;33506;-80
2021/12/31 02:09:27;;;;;;;;;;;;;;;13.16;53.57;100047.44;4460872;32;33859;-80
2021/12/31 02:11:55;;;;;;;;;;;;;;;13.42;53.09;100056.16;4455433;32;34190;-81
2021/12/31 02:14:24;;;;;;;;;;;;;;;13.47;52.66;100051.22;4468058;32;34041;-80
2021/12/31 02:16:52;;;;;;;;;;;;;;;13.54;52.38;100056.94;4471136;32;32856;-81
2021/12/31 02:19:27;;;;;;;;;;;;;;;13.36;53.38;100057.50;4478474;32;34585;-79
2021/12/31 02:21:55;;;;;;;;;;;;;;;13.38;53.46;100047.44;4468316;32;34461;-81
2021/12/31 02:24:23;;;;;;;;;;;;;;;13.41;53.55;100044.50;4458204;32;34492;-80
2021/12/31 02:26:51;;;;;;;;;;;;;;;13.34;53.92;100043.31;4472131;32;33588;-82
2021/12/31 02:29:19;;;;;;;;;;;;;;;13.25;54.30;100042.22;4469063;32;35288;-80
2021/12/31 02:31:46;;;;;;;;;;;;;;;13.51;53.63;100041.91;4466572;32;33974;-79
2021/12/31 02:34:14;;;;;;;;;;;;;;;13.56;53.41;100033.50;4461347;32;34049;-82
2021/12/31 02:36:41;;;;;;;;;;;;;;;13.44;53.76;100035.34;4465893;31;33542;-81
2021/12/31 02:39:08;;;;;;;;;;;;;;;13.38;53.76;100033.16;4471322;32;33818;-80
2021/12/31 02:41:36;;;;;;;;;;;;;;;13.52;53.04;100024.81;4470128;32;34935;-82
2021/12/31 02:44:03;;;;;;;;;;;;;;;13.55;52.85;100024.56;4473098;32;33888;-80
2021/12/31 02:46:31;;;;;;;;;;;;;;;13.66;52.38;100021.84;4466640;32;33777;-82
2021/12/31 02:48:58;;;;;;;;;;;;;;;13.36;53.60;100027.91;4462315;32;34263;-82
2021/12/31 02:51:26;;;;;;;;;;;;;;;13.35;53.51;100017.28;4466560;32;32937;-80
2021/12/31 02:53:54;;;;;;;;;;;;;;;13.52;52.95;100014.06;4444687;32;34396;-82
2021/12/31 02:56:22;;;;;;;;;;;;;;;13.15;53.49;100008.97;4470240;32;34582;-80
2021/12/31 02:58:49;;;;;;;;;;;;;;;13.15;53.93;100011.66;4466351;32;33973;-83
2021/12/31 03:01:17;;;;;;;;;;;;;;;13.12;53.70;99998.47;4470844;32;34009;-83
2021/12/31 03:03:44;;;;;;;;;;;;;;;13.18;53.60;100014.09;4473828;32;35326;-80
2021/12/31 03:06:12;;;;;;;;;;;;;;;13.22;53.25;100006.63;4456472;32;33980;-82
2021/12/31 03:08:42;;;;;;;;;;;;;;;13.32;52.88;100007.63;4452628;32;33793;-80
2021/12/31 03:11:09;;;;;;;;;;;;;;;13.26;52.69;100010.84;4465003;32;34075;-81
2021/12/31 03:13:38;;;;;;;;;;;;;;;13.09;53.35;100019.38;4475169;32;36253;-81
2021/12/31 03:16:06;;;;;;;;;;;;;;;12.90;53.99;100020.84;4459384;32;33400;-83
2021/12/31 03:18:34;;;;;;;;;;;;;;;12.84;53.88;100018.66;4452313;32;34144;-81
2021/12/31 03:21:06;;;;;;;;;;;;;;;12.78;53.93;100009.25;4456780;32;33920;-82
2021/12/31 03:23:33;;;;;;;;;;;;;;;12.87;53.61;100009.50;4468722;32;31845;-80
2021/12/31 03:26:01;;;;;;;;;;;;;;;12.88;52.99;100011.22;4471653;31;33448;-80
2021/12/31 03:28:28;;;;;;;;;;;;;;;12.71;53.82;100004.47;4457337;32;34369;-81
2021/12/31 03:30:56;;;;;;;;;;;;;;;13.14;52.40;99999.22;4471439;32;35598;-82
2021/12/31 03:33:24;;;;;;;;;;;;;;;12.91;53.12;100002.91;4471548;32;33939;-80
2021/12/31 03:35:51;;;;;;;;;;;;;;;12.99;52.72;100003.97;4473230;32;34892;-79
2021/12/31 03:38:19;;;;;;;;;;;;;;;13.01;52.44;100003.88;4463289;32;33241;-78
2021/12/31 03:40:47;;;;;;;;;;;;;;;12.74;53.10;100006.94;4474992;32;35032;-81
2021/12/31 03:43:14;;;;;;;;;;;;;;;12.88;52.74;99989.72;4459859;32;33847;-80
2021/12/31 03:45:42;;;;;;;;;;;;;;;12.89;52.52;99999.50;4475270;32;33551;-79
2021/12/31 03:48:10;;;;;;;;;;;;;;;13.10;52.20;99997.75;4474549;32;33125;-79
2021/12/31 03:50:37;;;;;;;;;;;;;;;12.73;53.63;100005.22;4468720;32;33963;-85
2021/12/31 03:53:04;;;;;;;;;;;;;;;12.36;54.97;100002.78;4465040;31;33685;-84
2021/12/31 03:55:32;;;;;;;;;;;;;;;12.37;54.97;100004.47;4462825;32;30783;-82
2021/12/31 03:57:59;;;;;;;;;;;;;;;12.32;55.03;100003.97;4456022;32;32460;-83
2021/12/31 04:00:29;;;;;;;;;;;;;;;12.39;54.86;100012.38;4448936;32;33610;-83
2021/12/31 04:02:57;;;;;;;;;;;;;;;12.42;54.92;100009.47;4453925;32;34148;-83
2021/12/31 04:05:25;;;;;;;;;;;;;;;12.63;54.55;100006.94;4449956;32;33698;-84
2021/12/31 04:07:52;;;;;;;;;;;;;;;12.86;54.16;100011.31;4469474;32;33146;-82
2021/12/31 04:10:22;;;;;;;;;;;;;;;12.95;53.78;100004.38;4463096;32;34102;-83
2021/12/31 04:12:49;;;;;;;;;;;;;;;12.96;53.68;99998.84;4448085;32;33621;-84
2021/12/31 04:15:17;;;;;;;;;;;;;;;12.98;53.59;100004.13;4459788;32;33491;-83
2021/12/31 04:17:44;;;;;;;;;;;;;;;13.06;53.71;100007.03;4460289;32;33936;-82
2021/12/31 04:20:20;;;;;;;;;;;;;;;12.98;53.98;100006.81;4458067;32;34328;-80
2021/12/31 04:22:54;;;;;;;;;;;;;;;13.22;53.69;99994.06;4469617;32;34660;-80
2021/12/31 04:25:21;;;;;;;;;;;;;;;13.30;53.49;99996.16;4473225;32;34211;-76
2021/12/31 04:27:49;;;;;;;;;;;;;;;12.12;57.30;100008.19;4469659;32;35086;-80
2021/12/31 04:30:16;;;;;;;;;;;;;;;12.54;56.85;100009.34;4471838;32;35585;-80
2021/12/31 04:32:43;;;;;;;;;;;;;;;12.92;55.47;100007.31;4471717;31;33993;-81
2021/12/31 04:35:11;;;;;;;;;;;;;;;13.23;54.87;99998.47;4470910;32;33372;-81
2021/12/31 04:37:40;;;;;;;;;;;;;;;13.40;54.48;100009.69;4470938;32;34345;-82
2021/12/31 04:40:10;;;;;;;;;;;;;;;13.51;54.47;100001.59;4470232;32;34106;-81
2021/12/31 04:42:39;;;;;;;;;;;;;;;13.57;54.70;100011.84;4467763;32;34275;-81
2021/12/31 04:45:06;;;;;;;;;;;;;;;13.52;54.94;100009.53;4471187;32;34132;-88
2021/12/31 04:47:34;;;;;;;;;;;;;;;13.55;55.20;100011.13;4471011;31;35212;-84
2021/12/31 04:50:02;;;;;;;;;;;;;;;13.67;54.94;100017.31;4467454;32;33969;-85
2021/12/31 04:52:29;;;;;;;;;;;;;;;13.90;54.41;100012.69;4449987;31;32934;-86
2021/12/31 04:54:57;;;;;;;;;;;;;;;14.13;53.99;100016.97;4455006;32;33598;-85
2021/12/31 04:57:26;;;;;;;;;;;;;;;14.30;53.75;100012.84;4470254;32;34545;-86
2021/12/31 04:59:53;;;;;;;;;;;;;;;14.40;53.54;100010.19;4455399;32;34430;-84
2021/12/31 05:02:21;;;;;;;;;;;;;;;14.27;53.93;100012.25;4467046;32;34199;-85
2021/12/31 05:04:49;;;;;;;;;;;;;;;14.45;53.32;100016.06;4463087;32;32217;-84
2021/12/31 05:07:16;;;;;;;;;;;;;;;14.62;52.77;100006.53;4453597;32;34409;-86
2021/12/31 05:09:44;;;;;;;;;;;;;;;14.79;52.75;100013.13;4453469;32;33744;-84
2021/12/31 05:12:15;;;;;;;;;;;;;;;14.86;51.96;100014.28;4450904;32;33999;-86
2021/12/31 05:14:43;;;;;;;;;;;;;;;14.84;50.08;100016.28;4458429;32;32804;-82
2021/12/31 05:17:10;;;;;;;;;;;;;;;14.74;48.65;100026.16;4443154;32;34745;-84
2021/12/31 05:19:37;;;;;;;;;;;;;;;14.78;47.46;100025.75;4447863;32;34286;-83
2021/12/31 05:22:05;;;;;;;;;;;;;;;14.65;47.21;100022.44;4453047;32;32853;-84
2021/12/31 05:24:32;;;;;;;;;;;;;;;14.47;47.61;100024.84;4444570;32;31799;-86
2021/12/31 05:27:00;;;;;;;;;;;;;;;14.38;48.29;100023.81;4456776;32;33108;-82
2021/12/31 05:29:27;;;;;;;;;;;;;;;14.33;48.78;100025.19;4466169;32;34258;-81
2021/12/31 05:31:54;;;;;;;;;;;;;;;13.92;49.06;100016.94;4465592;32;34315;-82
2021/12/31 05:34:22;;;;;;;;;;;;;;;13.87;49.25;100021.88;4472057;32;33430;-85
2021/12/31 05:36:50;;;;;;;;;;;;;;;13.81;49.75;100018.84;4470242;32;32851;-85
2021/12/31 05:39:17;;;;;;;;;;;;;;;13.82;50.01;100032.16;4455921;32;32978;-85
2021/12/31 05:41:44;;;;;;;;;;;;;;;13.76;50.44;100029.97;4445580;32;35097;-85
2021/12/31 05:44:12;;;;;;;;;;;;;;;13.77;51.22;100034.38;4462971;32;32225;-85
2021/12/31 05:46:44;;;;;;;;;;;;;;;13.73;51.57;100031.09;4446061;32;34016;-79
2021/12/31 05:49:11;;;;;;;;;;;;;;;13.74;51.89;100038.19;4467766;32;34264;-89
2021/12/31 05:51:39;;;;;;;;;;;;;;;13.89;51.50;100035.19;4448930;32;33133;-82
2021/12/31 05:54:06;;;;;;;;;;;;;;;14.00;50.74;100040.53;4443583;32;34083;-82
2021/12/31 05:56:34;;;;;;;;;;;;;;;14.06;50.87;100033.75;4450121;32;34186;-85
2021/12/31 05:59:01;;;;;;;;;;;;;;;14.09;51.70;100041.59;4456638;32;34174;-82
2021/12/31 06:01:28;;;;;;;;;;;;;;;13.95;52.17;100034.69;4476519;32;35202;-82
2021/12/31 06:03:56;;;;;;;;;;;;;;;14.06;52.54;100045.41;4460097;32;33346;-79
2021/12/31 06:06:24;;;;;;;;;;;;;;;14.20;52.15;100046.91;4466098;32;34372;-78
2021/12/31 06:08:51;;;;;;;;;;;;;;;14.37;50.94;100053.56;4471415;31;34351;-79
2021/12/31 06:11:19;;;;;;;;;;;;;;;14.49;50.24;100052.50;4474483;32;34821;-80
2021/12/31 06:13:49;;;;;;;;;;;;;;;14.64;50.38;100050.37;4472135;32;33386;-80
2021/12/31 06:16:17;;;;;;;;;;;;;;;14.70;50.40;100057.03;4467935;32;35153;-81
2021/12/31 06:18:45;;;;;;;;;;;;;;;14.75;50.36;100047.56;4458396;32;34340;-79
2021/12/31 06:21:12;;;;;;;;;;;;;;;14.75;47.95;100054.81;4473845;32;33192;-79
2021/12/31 06:23:40;;;;;;;;;;;;;;;14.57;47.44;100058.09;4469261;32;34403;-81
2021/12/31 06:26:27;;;;;;;;;;;;;;;14.26;47.94;100059.00;4473286;32;33928;-81
2021/12/31 06:28:55;;;;;;;;;;;;;;;14.17;47.72;100057.94;4476230;32;34523;-88
2021/12/31 06:31:22;;;;;;;;;;;;;;;14.16;47.49;100058.94;4449190;32;33146;-83
2021/12/31 06:33:50;;;;;;;;;;;;;;;13.98;47.36;100064.03;4468691;32;32885;-83
2021/12/31 06:36:19;;;;;;;;;;;;;;;14.17;46.80;100056.09;4458357;32;32990;-83
2021/12/31 06:38:47;;;;;;;;;;;;;;;13.95;46.75;100054.37;4467196;32;33790;-84
2021/12/31 06:41:16;;;;;;;;;;;;;;;13.99;47.13;100058.50;4459982;32;34743;-83
2021/12/31 06:43:43;;;;;;;;;;;;;;;14.12;46.76;100066.41;4474205;32;33077;-83
2021/12/31 06:46:11;;;;;;;;;;;;;;;14.23;46.95;100067.34;4464022;32;34343;-83
2021/12/31 06:48:38;;;;;;;;;;;;;;;14.40;46.39;100075.69;4446497;32;35344;-83
2021/12/31 06:51:06;;;;;;;;;;;;;;;14.47;46.54;100067.09;4462933;32;34314;-83
2021/12/31 06:53:33;;;;;;;;;;;;;;;14.53;45.87;100077.34;4469598;32;33175;-84
2021/12/31 06:56:01;;;;;;;;;;;;;;;14.45;45.80;100062.69;4460929;32;34370;-83
2021/12/31 06:58:28;;;;;;;;;;;;;;;14.23;47.20;100062.81;4457808;32;32918;-83
2021/12/31 07:00:55;;;;;;;;;;;;;;;14.11;48.10;100072.78;4468283;32;34016;-84
2021/12/31 07:03:23;;;;;;;;;;;;;;;14.02;48.99;100070.84;4472199;32;33178;-80
2021/12/31 07:05:50;;;;;;;;;;;;;;;14.07;49.64;100083.94;4457399;32;34336;-83
2021/12/31 07:08:22;;;;;;;;;;;;;;;13.99;50.82;100081.88;4467402;32;35745;-80
2021/12/31 07:10:50;;;;;;;;;;;;;;;14.55;50.39;100087.03;4472487;32;34857;-79
2021/12/31 07:13:17;;;;;;;;;;;;;;;15.03;49.87;100086.44;4467611;32;33080;-80
2021/12/31 07:15:48;;;;;;;;;;;;;;;15.75;48.67;100088.09;4459359;32;34996;-79
2021/12/31 07:18:17;;;;;;;;;;;;;;;16.11;48.21;100087.56;4467124;32;32744;-81
2021/12/31 07:20:44;;;;;;;;;;;;;;;16.35;48.04;100092.56;4473773;32;34350;-80
2021/12/31 07:23:12;;;;;;;;;;;;;;;16.37;47.82;100102.22;4458247;32;33409;-82
2021/12/31 07:25:40;;;;;;;;;;;;;;;16.81;46.99;100108.00;4462449;32;34876;-83
2021/12/31 07:28:08;;;;;;;;;;;;;;;16.74;47.33;100109.56;4472735;32;34506;-82
2021/12/31 07:30:35;;;;;;;;;;;;;;;16.91;47.21;100100.72;4473014;31;34034;-83
2021/12/31 07:33:03;;;;;;;;;;;;;;;17.08;46.78;100104.53;4470185;32;32834;-83
2021/12/31 07:35:33;;;;;;;;;;;;;;;17.18;46.66;100112.59;4467003;32;34374;-84
2021/12/31 07:38:01;;;;;;;;;;;;;;;17.18;47.00;100109.91;4469447;32;33239;-84
2021/12/31 07:40:39;;;;;;;;;;;;;;;17.55;45.99;100111.72;4474624;32;35359;-84
2021/12/31 07:43:06;;;;;;;;;;;;;;;17.44;46.09;100107.34;4468451;32;33365;-84
2021/12/31 07:45:34;;;;;;;;;;;;;;;17.15;47.03;100115.59;4451758;32;34079;-84
2021/12/31 07:48:02;;;;;;;;;;;;;;;17.16;47.34;100109.19;4470147;32;34205;-84
2021/12/31 07:50:30;;;;;;;;;;;;;;;17.09;47.29;100113.47;4469314;32;33881;-84
2021/12/31 07:52:58;;;;;;;;;;;;;;;17.50;46.38;100103.22;4466183;31;33382;-84
2021/12/31 07:55:25;;;;;;;;;;;;;;;18.06;45.53;100102.16;4471510;32;33210;-82
2021/12/31 07:57:52;;;;;;;;;;;;;;;18.11;45.64;100105.25;4463673;32;32908;-84
2021/12/31 08:00:20;;;;;;;;;;;;;;;18.21;45.58;100103.31;4456971;32;34241;-84
2021/12/31 08:02:48;;;;;;;;;;;;;;;18.48;44.91;100104.22;4466020;32;32132;-81
2021/12/31 08:05:16;;;;;;;;;;;;;;;18.66;44.36;100113.19;4470531;32;34992;-81
2021/12/31 08:07:43;;;;;;;;;;;;;;;19.50;43.03;100115.22;4465107;32;34432;-81
2021/12/31 08:10:11;;;;;;;;;;;;;;;20.28;41.64;100115.97;4464573;32;35206;-81
2021/12/31 08:12:53;;;;;;;;;;;;;;;20.75;40.64;100118.91;4463970;32;34479;-82
2021/12/31 08:15:20;;;;;;;;;;;;;;;20.92;39.91;100111.56;4468415;32;34311;-81
2021/12/31 08:17:48;;;;;;;;;;;;;;;20.29;41.68;100118.53;4460914;32;35032;-82
2021/12/31 08:20:15;;;;;;;;;;;;;;;21.00;40.39;100116.16;4471867;32;34888;-83
2021/12/31 08:22:43;;;;;;;;;;;;;;;21.38;39.24;100120.00;4463039;32;32073;-82
2021/12/31 08:25:10;;;;;;;;;;;;;;;21.70;39.08;100126.31;4474230;31;34244;-83
2021/12/31 08:27:39;;;;;;;;;;;;;;;21.90;38.40;100124.87;4469649;32;33036;-82
2021/12/31 08:30:08;;;;;;;;;;;;;;;22.34;37.85;100116.06;4471682;31;34371;-83
2021/12/31 08:32:35;;;;;;;;;;;;;;;22.82;36.94;100122.16;4470402;32;33556;-83
2021/12/31 08:35:03;;;;;;;;;;;;;;;23.58;35.52;100122.03;4470969;32;35005;-82
2021/12/31 08:37:31;;;;;;;;;;;;;;;24.23;34.26;100115.69;4464109;32;34135;-83
2021/12/31 08:39:59;;;;;;;;;;;;;;;23.40;35.65;100116.97;4467412;32;33941;-82
2021/12/31 08:42:26;;;;;;;;;;;;;;;22.83;37.12;100117.56;4464735;32;33222;-81
2021/12/31 08:44:53;;;;;;;;;;;;;;;22.65;37.54;100115.16;4476437;32;34220;-82
2021/12/31 08:47:27;;;;;;;;;;;;;;;23.81;35.25;100111.00;4469572;32;33930;-82
2021/12/31 08:49:55;;;;;;;;;;;;;;;23.22;36.21;100117.34;4473659;32;34745;-82
2021/12/31 08:52:22;;;;;;;;;;;;;;;23.30;36.30;100119.97;4472530;32;33128;-82
2021/12/31 08:54:49;;;;;;;;;;;;;;;22.16;38.58;100105.47;4475080;32;34347;-83
2021/12/31 08:57:17;;;;;;;;;;;;;;;21.96;38.77;100115.09;4455836;32;34445;-83
2021/12/31 08:59:44;;;;;;;;;;;;;;;21.73;39.24;100110.47;4471742;32;35228;-82
2021/12/31 09:02:13;;;;;;;;;;;;;;;21.73;39.68;100109.62;4446643;32;34114;-83
2021/12/31 09:04:40;;;;;;;;;;;;;;;21.15;41.32;100104.38;4464223;32;32765;-86
2021/12/31 09:07:08;;;;;;;;;;;;;;;22.13;39.21;100102.25;4472178;32;34035;-83
2021/12/31 09:09:35;;;;;;;;;;;;;;;22.20;39.06;100100.50;4471869;32;34509;-83
2021/12/31 09:12:03;;;;;;;;;;;;;;;22.67;38.57;100107.66;4474505;32;33273;-86
2021/12/31 09:14:30;;;;;;;;;;;;;;;23.76;36.50;100108.88;4464528;32;34562;-83
2021/12/31 09:16:58;;;;;;;;;;;;;;;24.60;34.41;100106.41;4471183;32;34217;-83
2021/12/31 09:19:26;;;;;;;;;;;;;;;25.22;33.62;100101.19;4458968;32;32797;-87
2021/12/31 09:21:55;;;;;;;;;;;;;;;24.40;34.43;100106.19;4456948;32;34150;-82
2021/12/31 09:24:23;;;;;;;;;;;;;;;24.09;35.44;100105.66;4457338;32;34138;-82
2021/12/31 09:26:51;;;;;;;;;;;;;;;23.73;36.15;100103.78;4460667;32;34113;-81
2021/12/31 09:29:21;;;;;;;;;;;;;;;24.24;35.77;100105.59;4469927;32;34282;-82
2021/12/31 09:31:49;;;;;;;;;;;;;;;25.50;33.25;100098.41;4459149;32;32998;-84
2021/12/31 09:34:17;;;;;;;;;;;;;;;24.91;33.43;100096.09;4458812;32;35214;-83
2021/12/31 09:36:44;;;;;;;;;;;;;;;25.11;34.36;100091.63;4460616;32;32956;-82
2021/12/31 09:39:12;;;;;;;;;;;;;;;24.12;34.93;100092.44;4473027;32;34653;-83
2021/12/31 09:41:44;;;;;;;;;;;;;;;25.58;33.05;100087.25;4459839;32;33376;-81
2021/12/31 09:44:14;;;;;;;;;;;;;;;24.83;34.36;100094.37;4473337;32;35115;-87
2021/12/31 09:46:42;;;;;;;;;;;;;;;24.14;35.74;100094.97;4451064;32;33771;-78
2021/12/31 09:49:10;;;;;;;;;;;;;;;24.17;35.97;100091.84;4466736;32;34463;-78
2021/12/31 09:51:40;;;;;;;;;;;;;;;24.82;34.30;100096.28;4472842;32;33606;-78
2021/12/31 09:54:08;;;;;;;;;;;;;;;25.72;32.66;100093.66;4466812;32;34567;-78
2021/12/31 09:56:39;;;;;;;;;;;;;;;26.24;31.63;100103.12;4473663;32;35256;-80
2021/12/31 09:59:07;;;;;;;;;;;;;;;27.45;29.79;100102.91;4471617;32;34311;-78
2021/12/31 10:01:44;;;;;;;;;;;;;;;28.03;29.43;100107.56;4459353;32;33500;-81
2021/12/31 10:04:12;;;;;;;;;;;;;;;27.56;29.37;100098.63;4466828;32;35149;-79
2021/12/31 10:06:58;;;;;;;;;;;;;;;27.37;29.79;100097.63;4470980;32;35347;-79
2021/12/31 10:09:26;;;;;;;;;;;;;;;27.16;29.73;100093.25;4469361;32;34740;-79
2021/12/31 10:12:07;;;;;;;;;;;;;;;27.04;30.45;100087.53;4473142;32;33768;-79
2021/12/31 10:14:39;;;;;;;;;;;;;;;26.29;31.66;100075.88;4473498;32;33810;-78
2021/12/31 10:17:06;;;;;;;;;;;;;;;25.64;32.69;100085.59;4473541;32;34213;-77
2021/12/31 10:19:34;;;;;;;;;;;;;;;25.65;32.55;100077.19;4469302;32;33884;-78
2021/12/31 10:22:01;;;;;;;;;;;;;;;26.75;31.04;100074.28;4470298;32;33187;-79
2021/12/31 10:24:36;;;;;;;;;;;;;;;27.18;30.21;100072.72;4473024;32;34409;-78
2021/12/31 10:27:11;;;;;;;;;;;;;;;27.07;30.26;100076.12;4470686;32;33983;-78
2021/12/31 10:29:58;;;;;;;;;;;;;;;27.45;29.84;100082.81;4471215;32;34714;-77
2021/12/31 10:32:29;;;;;;;;;;;;;;;28.18;28.23;100072.31;4471523;32;33679;-81
2021/12/31 10:35:07;;;;;;;;;;;;;;;29.39;26.84;100081.25;4472209;32;33254;-81
2021/12/31 10:37:41;;;;;;;;;;;;;;;28.83;27.27;100063.78;4464534;32;34114;-78
2021/12/31 10:40:10;;;;;;;;;;;;;;;27.50;29.48;100069.25;4475077;32;35144;-79
2021/12/31 10:42:38;;;;;;;;;;;;;;;28.16;28.55;100062.62;4459326;32;35387;-76
2021/12/31 10:45:06;;;;;;;;;;;;;;;26.96;30.30;100068.53;4469050;32;34037;-79
2021/12/31 10:47:34;;;;;;;;;;;;;;;26.34;31.25;100065.16;4473679;32;35361;-77
2021/12/31 10:50:02;;;;;;;;;;;;;;;26.58;31.31;100071.97;4473156;32;34226;-78
2021/12/31 10:52:35;;;;;;;;;;;;;;;26.16;31.71;100074.00;4467185;32;34366;-78
2021/12/31 10:55:14;;;;;;;;;;;;;;;25.21;33.39;100074.87;4469817;32;32591;-78
2021/12/31 10:57:42;;;;;;;;;;;;;;;25.25;33.72;100074.25;4458685;32;32872;-76
2021/12/31 11:00:09;;;;;;;;;;;;;;;24.68;34.66;100080.78;4473213;32;33806;-79
2021/12/31 11:02:37;;;;;;;;;;;;;;;24.76;34.22;100079.81;4468601;32;33210;-79
2021/12/31 11:05:05;;;;;;;;;;;;;;;24.46;34.83;100079.94;4461745;32;33880;-80
2021/12/31 11:07:34;;;;;;;;;;;;;;;23.76;36.46;100084.28;4470635;32;34314;-79
2021/12/31 11:10:25;;;;;;;;;;;;;;;23.76;36.82;100078.81;4460242;32;32497;-80
2021/12/31 11:12:52;;;;;;;;;;;;;;;23.68;37.12;100073.41;4469588;32;33278;-80
2021/12/31 11:15:20;;;;;;;;;;;;;;;23.41;37.50;100075.81;4468047;32;34109;-79
2021/12/31 11:17:48;;;;;;;;;;;;;;;22.91;38.28;100071.06;4446724;32;34698;-80
2021/12/31 11:20:18;;;;;;;;;;;;;;;22.55;39.01;100067.16;4469487;32;35103;-80
2021/12/31 11:22:45;;;;;;;;;;;;;;;22.56;38.93;100065.25;4460695;32;33497;-80
2021/12/31 11:25:33;;;;;;;;;;;;;;;22.74;38.69;100068.50;4469450;31;33093;-79
2021/12/31 11:28:01;;;;;;;;;;;;;;;23.34;37.46;100069.41;4468478;32;33917;-80
2021/12/31 11:30:37;;;;;;;;;;;;;;;23.55;37.09;100065.06;4469645;32;34377;-80
2021/12/31 11:33:08;;;;;;;;;;;;;;;23.49;37.02;100059.31;4466056;32;34016;-79
2021/12/31 11:35:36;;;;;;;;;;;;;;;23.10;37.48;100069.69;4463568;32;33894;-81
2021/12/31 11:38:07;;;;;;;;;;;;;;;22.39;39.04;100056.38;4466084;32;35226;-81
2021/12/31 11:40:36;;;;;;;;;;;;;;;21.97;40.30;100062.31;4468799;32;34067;-81
2021/12/31 11:43:38;;;;;;;;;;;;;;;21.10;42.14;100065.94;4467589;32;32879;-82
2021/12/31 11:46:09;;;;;;;;;;;;;;;20.88;42.36;100059.38;4444277;32;34330;-82
2021/12/31 11:48:48;;;;;;;;;;;;;;;20.10;44.04;100059.91;4468422;31;34447;-83
2021/12/31 11:51:34;;;;;;;;;;;;;;;19.84;44.92;100056.47;4472976;32;33915;-84
2021/12/31 11:54:03;;;;;;;;;;;;;;;19.51;45.76;100059.06;4451788;32;31842;-82
2021/12/31 11:56:37;;;;;;;;;;;;;;;19.39;46.12;100063.97;4464821;32;33945;-80
2021/12/31 11:59:07;;;;;;;;;;;;;;;19.41;46.42;100061.91;4470273;32;34872;-79
2021/12/31 12:01:37;;;;;;;;;;;;;;;18.92;47.31;100058.97;4473687;32;33094;-79
2021/12/31 12:04:24;;;;;;;;;;;;;;;18.80;47.91;100057.56;4470924;32;32118;-79
2021/12/31 12:07:02;;;;;;;;;;;;;;;18.90;47.41;100058.28;4467629;32;35416;-79
2021/12/31 12:09:36;;;;;;;;;;;;;;;18.87;47.66;100052.34;4466780;32;34384;-79
2021/12/31 12:12:13;;;;;;;;;;;;;;;18.33;49.13;100042.47;4470587;32;34337;-79
2021/12/31 12:14:45;;;;;;;;;;;;;;;18.79;48.74;100045.84;4465871;32;34015;-78
2021/12/31 12:17:13;;;;;;;;;;;;;;;18.76;48.26;100054.31;4468097;32;34168;-78
2021/12/31 12:19:50;;;;;;;;;;;;;;;18.80;48.79;100047.53;4467419;32;34504;-78
2021/12/31 12:22:33;;;;;;;;;;;;;;;18.96;48.27;100045.94;4475248;32;35055;-78
2021/12/31 12:25:13;;;;;;;;;;;;;;;19.22;47.74;100043.19;4467679;32;32348;-77
2021/12/31 12:27:41;;;;;;;;;;;;;;;18.60;49.44;100037.91;4469155;32;34569;-73
2021/12/31 12:30:10;;;;;;;;;;;;;;;18.85;48.84;100041.66;4474391;32;34380;-71
2021/12/31 12:35:24;;;;;;;;;;;;;;;18.79;48.86;100035.00;4468536;32;34549;-76
2021/12/31 12:37:55;;;;;;;;;;;;;;;18.39;49.86;100027.41;4469900;32;35327;-76
2021/12/31 12:40:36;;;;;;;;;;;;;;;18.76;49.61;100031.78;4467059;32;33597;-77
2021/12/31 12:43:04;;;;;;;;;;;;;;;18.63;49.80;100029.47;4469798;32;32921;-78
2021/12/31 12:45:33;;;;;;;;;;;;;;;18.42;50.16;100020.84;4468563;32;33306;-78
2021/12/31 12:48:01;;;;;;;;;;;;;;;18.58;49.52;100034.50;4469848;32;34396;-75
2021/12/31 12:50:28;;;;;;;;;;;;;;;18.46;50.29;100030.34;4468960;32;34975;-78
2021/12/31 12:52:56;;;;;;;;;;;;;;;18.26;50.46;100029.69;4471192;31;34214;-80